sensor_id;sensor_type;location;lat;lon;timestamp;temperature;humidity
16521;DHT22;8373;48.110;11.522;2023-06-22T00:01:23;24.50;66.90
16521;DHT22;8373;48.110;11.522;2023-06-22T00:03:50;24.60;66.90
16521;DHT22;8373;48.110;11.522;2023-06-22T00:06:19;24.50;66.80
16521;DHT22;8373;48.110;11.522;2023-06-22T00:08:48;24.50;67.00
16521;DHT22;8373;48.110;11.522;2023-06-22T00:11:16;24.60;66.90
16521;DHT22;8373;48.110;11.522;2023-06-22T00:13:47;24.60;66.90
16521;DHT22;8373;48.110;11.522;2023-06-22T00:16:18;24.50;67.00
16521;DHT22;8373;48.110;11.522;2023-06-22T00:18:47;24.60;66.90
16521;DHT22;8373;48.110;11.522;2023-06-22T00:21:19;24.60;66.90
16521;DHT22;8373;48.110;11.522;2023-06-22T00:23:50;24.60;66.90
16521;DHT22;8373;48.110;11.522;2023-06-22T00:26:19;24.60;66.90
16521;DHT22;8373;48.110;11.522;2023-06-22T00:28:48;24.60;66.70
16521;DHT22;8373;48.110;11.522;2023-06-22T00:31:15;24.50;66.60
16521;DHT22;8373;48.110;11.522;2023-06-22T00:33:43;24.40;66.80
16521;DHT22;8373;48.110;11.522;2023-06-22T00:36:11;24.30;67.10
16521;DHT22;8373;48.110;11.522;2023-06-22T00:38:44;24.20;67.60
16521;DHT22;8373;48.110;11.522;2023-06-22T00:41:12;24.10;68.00
16521;DHT22;8373;48.110;11.522;2023-06-22T00:43:40;24.00;68.30
16521;DHT22;8373;48.110;11.522;2023-06-22T00:46:10;23.90;68.60
16521;DHT22;8373;48.110;11.522;2023-06-22T00:48:40;23.80;68.80
16521;DHT22;8373;48.110;11.522;2023-06-22T00:51:10;23.80;68.90
16521;DHT22;8373;48.110;11.522;2023-06-22T00:53:41;23.70;69.10
16521;DHT22;8373;48.110;11.522;2023-06-22T00:56:12;23.70;69.20
16521;DHT22;8373;48.110;11.522;2023-06-22T00:58:47;23.70;69.10
16521;DHT22;8373;48.110;11.522;2023-06-22T01:01:19;23.70;69.20
16521;DHT22;8373;48.110;11.522;2023-06-22T01:03:51;23.70;69.50
16521;DHT22;8373;48.110;11.522;2023-06-22T01:06:28;23.70;69.40
16521;DHT22;8373;48.110;11.522;2023-06-22T01:09:09;23.70;69.30
16521;DHT22;8373;48.110;11.522;2023-06-22T01:11:47;23.60;69.40
16521;DHT22;8373;48.110;11.522;2023-06-22T01:14:22;23.60;69.40
16521;DHT22;8373;48.110;11.522;2023-06-22T01:16:54;23.60;69.50
16521;DHT22;8373;48.110;11.522;2023-06-22T01:19:35;23.60;69.50
16521;DHT22;8373;48.110;11.522;2023-06-22T01:22:08;23.60;69.70
16521;DHT22;8373;48.110;11.522;2023-06-22T01:24:51;23.60;69.80
16521;DHT22;8373;48.110;11.522;2023-06-22T01:27:32;23.60;69.70
16521;DHT22;8373;48.110;11.522;2023-06-22T01:30:07;23.60;69.60
16521;DHT22;8373;48.110;11.522;2023-06-22T01:32:38;23.50;69.90
16521;DHT22;8373;48.110;11.522;2023-06-22T01:35:08;23.40;70.10
16521;DHT22;8373;48.110;11.522;2023-06-22T01:37:37;23.40;70.20
16521;DHT22;8373;48.110;11.522;2023-06-22T01:40:06;23.30;70.40
16521;DHT22;8373;48.110;11.522;2023-06-22T01:42:36;23.30;70.80
16521;DHT22;8373;48.110;11.522;2023-06-22T01:45:08;23.20;70.90
16521;DHT22;8373;48.110;11.522;2023-06-22T01:47:37;23.20;71.00
16521;DHT22;8373;48.110;11.522;2023-06-22T01:50:06;23.20;71.00
16521;DHT22;8373;48.110;11.522;2023-06-22T01:52:35;23.10;71.10
16521;DHT22;8373;48.110;11.522;2023-06-22T01:55:04;23.10;71.20
16521;DHT22;8373;48.110;11.522;2023-06-22T01:57:34;23.10;71.50
16521;DHT22;8373;48.110;11.522;2023-06-22T02:00:03;23.10;71.60
16521;DHT22;8373;48.110;11.522;2023-06-22T02:02:38;23.10;71.40
16521;DHT22;8373;48.110;11.522;2023-06-22T02:05:08;23.10;71.40
16521;DHT22;8373;48.110;11.522;2023-06-22T02:07:43;23.00;71.40
16521;DHT22;8373;48.110;11.522;2023-06-22T02:10:15;23.00;71.80
16521;DHT22;8373;48.110;11.522;2023-06-22T02:12:44;23.00;72.00
16521;DHT22;8373;48.110;11.522;2023-06-22T02:15:12;23.00;72.00
16521;DHT22;8373;48.110;11.522;2023-06-22T02:17:43;23.10;71.80
16521;DHT22;8373;48.110;11.522;2023-06-22T02:20:13;23.10;71.60
16521;DHT22;8373;48.110;11.522;2023-06-22T02:22:42;23.10;71.70
16521;DHT22;8373;48.110;11.522;2023-06-22T02:25:11;23.20;71.70
16521;DHT22;8373;48.110;11.522;2023-06-22T02:27:39;23.20;71.70
16521;DHT22;8373;48.110;11.522;2023-06-22T02:30:08;23.30;71.80
16521;DHT22;8373;48.110;11.522;2023-06-22T02:32:36;23.30;71.70
16521;DHT22;8373;48.110;11.522;2023-06-22T02:35:10;23.40;71.60
16521;DHT22;8373;48.110;11.522;2023-06-22T02:37:39;23.40;71.60
16521;DHT22;8373;48.110;11.522;2023-06-22T02:40:08;23.30;71.60
16521;DHT22;8373;48.110;11.522;2023-06-22T02:42:36;23.40;71.90
16521;DHT22;8373;48.110;11.522;2023-06-22T02:45:05;23.40;71.80
16521;DHT22;8373;48.110;11.522;2023-06-22T02:47:33;23.40;71.90
16521;DHT22;8373;48.110;11.522;2023-06-22T02:50:01;23.40;72.10
16521;DHT22;8373;48.110;11.522;2023-06-22T02:52:31;23.40;72.30
16521;DHT22;8373;48.110;11.522;2023-06-22T02:54:59;23.40;72.30
16521;DHT22;8373;48.110;11.522;2023-06-22T02:57:27;23.30;72.20
16521;DHT22;8373;48.110;11.522;2023-06-22T02:59:55;23.40;72.60
16521;DHT22;8373;48.110;11.522;2023-06-22T03:02:24;23.40;72.70
16521;DHT22;8373;48.110;11.522;2023-06-22T03:04:54;23.50;72.20
16521;DHT22;8373;48.110;11.522;2023-06-22T03:07:23;23.50;72.00
16521;DHT22;8373;48.110;11.522;2023-06-22T03:09:52;23.40;71.70
16521;DHT22;8373;48.110;11.522;2023-06-22T03:12:23;23.40;71.70
16521;DHT22;8373;48.110;11.522;2023-06-22T03:14:52;23.40;72.10
16521;DHT22;8373;48.110;11.522;2023-06-22T03:17:21;23.40;71.80
16521;DHT22;8373;48.110;11.522;2023-06-22T03:19:51;23.40;71.60
16521;DHT22;8373;48.110;11.522;2023-06-22T03:22:21;23.30;71.80
16521;DHT22;8373;48.110;11.522;2023-06-22T03:24:54;23.40;71.80
16521;DHT22;8373;48.110;11.522;2023-06-22T03:27:24;23.30;71.50
16521;DHT22;8373;48.110;11.522;2023-06-22T03:29:53;23.30;71.90
16521;DHT22;8373;48.110;11.522;2023-06-22T03:32:22;23.20;72.20
16521;DHT22;8373;48.110;11.522;2023-06-22T03:34:52;23.10;72.40
16521;DHT22;8373;48.110;11.522;2023-06-22T03:37:24;23.20;72.40
16521;DHT22;8373;48.110;11.522;2023-06-22T03:39:56;23.20;72.30
16521;DHT22;8373;48.110;11.522;2023-06-22T03:42:23;23.20;72.40
16521;DHT22;8373;48.110;11.522;2023-06-22T03:44:51;23.20;72.50
16521;DHT22;8373;48.110;11.522;2023-06-22T03:47:20;23.20;72.40
16521;DHT22;8373;48.110;11.522;2023-06-22T03:49:51;23.10;72.60
16521;DHT22;8373;48.110;11.522;2023-06-22T03:52:22;23.10;72.80
16521;DHT22;8373;48.110;11.522;2023-06-22T03:54:51;23.10;73.00
16521;DHT22;8373;48.110;11.522;2023-06-22T03:57:21;23.10;73.00
16521;DHT22;8373;48.110;11.522;2023-06-22T03:59:50;23.20;73.30
16521;DHT22;8373;48.110;11.522;2023-06-22T04:02:20;23.20;72.90
16521;DHT22;8373;48.110;11.522;2023-06-22T04:04:48;23.20;73.00
16521;DHT22;8373;48.110;11.522;2023-06-22T04:07:16;23.20;73.10
16521;DHT22;8373;48.110;11.522;2023-06-22T04:09:44;23.30;73.20
16521;DHT22;8373;48.110;11.522;2023-06-22T04:12:13;23.20;73.30
16521;DHT22;8373;48.110;11.522;2023-06-22T04:14:43;23.30;73.30
16521;DHT22;8373;48.110;11.522;2023-06-22T04:17:12;23.30;73.50
16521;DHT22;8373;48.110;11.522;2023-06-22T04:19:41;23.30;73.40
16521;DHT22;8373;48.110;11.522;2023-06-22T04:22:10;23.30;73.60
16521;DHT22;8373;48.110;11.522;2023-06-22T04:24:38;23.30;73.60
16521;DHT22;8373;48.110;11.522;2023-06-22T04:27:06;23.30;73.70
16521;DHT22;8373;48.110;11.522;2023-06-22T04:29:34;23.30;73.80
16521;DHT22;8373;48.110;11.522;2023-06-22T04:32:03;23.40;73.90
16521;DHT22;8373;48.110;11.522;2023-06-22T04:34:32;23.40;74.10
16521;DHT22;8373;48.110;11.522;2023-06-22T04:36:59;23.40;73.90
16521;DHT22;8373;48.110;11.522;2023-06-22T04:39:27;23.50;73.90
16521;DHT22;8373;48.110;11.522;2023-06-22T04:41:55;23.50;74.00
16521;DHT22;8373;48.110;11.522;2023-06-22T04:44:26;23.60;74.10
16521;DHT22;8373;48.110;11.522;2023-06-22T04:46:55;23.50;74.30
16521;DHT22;8373;48.110;11.522;2023-06-22T04:49:27;23.50;74.30
16521;DHT22;8373;48.110;11.522;2023-06-22T04:52:00;23.50;74.60
16521;DHT22;8373;48.110;11.522;2023-06-22T04:54:29;23.40;75.00
16521;DHT22;8373;48.110;11.522;2023-06-22T04:57:02;23.10;75.60
16521;DHT22;8373;48.110;11.522;2023-06-22T04:59:37;23.00;76.10
16521;DHT22;8373;48.110;11.522;2023-06-22T05:02:09;23.00;76.70
16521;DHT22;8373;48.110;11.522;2023-06-22T05:04:45;22.90;77.30
16521;DHT22;8373;48.110;11.522;2023-06-22T05:07:19;22.90;77.60
16521;DHT22;8373;48.110;11.522;2023-06-22T05:09:48;22.90;77.30
16521;DHT22;8373;48.110;11.522;2023-06-22T05:12:17;23.00;77.60
16521;DHT22;8373;48.110;11.522;2023-06-22T05:14:45;23.00;77.50
16521;DHT22;8373;48.110;11.522;2023-06-22T05:17:12;22.90;77.70
16521;DHT22;8373;48.110;11.522;2023-06-22T05:19:43;23.00;77.90
16521;DHT22;8373;48.110;11.522;2023-06-22T05:22:14;23.10;77.60
16521;DHT22;8373;48.110;11.522;2023-06-22T05:24:41;23.20;77.60
16521;DHT22;8373;48.110;11.522;2023-06-22T05:27:10;23.30;77.20
16521;DHT22;8373;48.110;11.522;2023-06-22T05:29:38;23.40;77.10
16521;DHT22;8373;48.110;11.522;2023-06-22T05:32:06;23.30;77.10
16521;DHT22;8373;48.110;11.522;2023-06-22T05:34:34;23.30;77.40
16521;DHT22;8373;48.110;11.522;2023-06-22T05:37:05;23.20;77.80
16521;DHT22;8373;48.110;11.522;2023-06-22T05:39:36;23.20;78.00
16521;DHT22;8373;48.110;11.522;2023-06-22T05:42:05;23.00;78.60
16521;DHT22;8373;48.110;11.522;2023-06-22T05:44:34;23.00;78.80
16521;DHT22;8373;48.110;11.522;2023-06-22T05:47:04;22.90;79.70
16521;DHT22;8373;48.110;11.522;2023-06-22T05:49:36;23.00;79.80
16521;DHT22;8373;48.110;11.522;2023-06-22T05:52:20;23.10;79.40
16521;DHT22;8373;48.110;11.522;2023-06-22T05:54:59;23.30;79.20
16521;DHT22;8373;48.110;11.522;2023-06-22T05:57:31;23.30;78.60
16521;DHT22;8373;48.110;11.522;2023-06-22T06:00:01;23.20;78.60
16521;DHT22;8373;48.110;11.522;2023-06-22T06:02:32;23.30;78.60
16521;DHT22;8373;48.110;11.522;2023-06-22T06:05:01;23.20;78.70
16521;DHT22;8373;48.110;11.522;2023-06-22T06:07:33;23.20;79.20
16521;DHT22;8373;48.110;11.522;2023-06-22T06:10:04;23.30;79.20
16521;DHT22;8373;48.110;11.522;2023-06-22T06:12:32;23.40;78.90
16521;DHT22;8373;48.110;11.522;2023-06-22T06:15:14;23.50;78.60
16521;DHT22;8373;48.110;11.522;2023-06-22T06:17:47;23.60;78.20
16521;DHT22;8373;48.110;11.522;2023-06-22T06:20:21;23.50;78.50
16521;DHT22;8373;48.110;11.522;2023-06-22T06:22:56;23.70;78.00
16521;DHT22;8373;48.110;11.522;2023-06-22T06:25:25;23.70;77.50
16521;DHT22;8373;48.110;11.522;2023-06-22T06:27:56;23.80;77.70
16521;DHT22;8373;48.110;11.522;2023-06-22T06:30:29;23.80;77.80
16521;DHT22;8373;48.110;11.522;2023-06-22T06:32:59;24.10;77.00
16521;DHT22;8373;48.110;11.522;2023-06-22T06:35:45;24.30;76.30
16521;DHT22;8373;48.110;11.522;2023-06-22T06:38:25;24.60;75.20
16521;DHT22;8373;48.110;11.522;2023-06-22T06:40:56;24.70;74.30
16521;DHT22;8373;48.110;11.522;2023-06-22T06:43:36;24.90;73.90
16521;DHT22;8373;48.110;11.522;2023-06-22T06:46:06;25.10;72.90
16521;DHT22;8373;48.110;11.522;2023-06-22T06:48:35;25.20;72.60
16521;DHT22;8373;48.110;11.522;2023-06-22T06:51:34;25.30;72.20
16521;DHT22;8373;48.110;11.522;2023-06-22T06:54:08;25.20;72.30
16521;DHT22;8373;48.110;11.522;2023-06-22T06:56:45;25.50;71.90
16521;DHT22;8373;48.110;11.522;2023-06-22T06:59:19;25.70;70.50
16521;DHT22;8373;48.110;11.522;2023-06-22T07:01:50;25.80;70.00
16521;DHT22;8373;48.110;11.522;2023-06-22T07:04:19;25.90;69.80
16521;DHT22;8373;48.110;11.522;2023-06-22T07:06:48;25.90;69.10
16521;DHT22;8373;48.110;11.522;2023-06-22T07:09:28;25.90;69.60
16521;DHT22;8373;48.110;11.522;2023-06-22T07:12:05;26.10;69.60
16521;DHT22;8373;48.110;11.522;2023-06-22T07:14:45;26.20;68.30
16521;DHT22;8373;48.110;11.522;2023-06-22T07:17:19;26.20;67.80
16521;DHT22;8373;48.110;11.522;2023-06-22T07:19:58;26.30;67.20
16521;DHT22;8373;48.110;11.522;2023-06-22T07:22:44;26.40;67.30
16521;DHT22;8373;48.110;11.522;2023-06-22T07:25:24;26.60;66.00
16521;DHT22;8373;48.110;11.522;2023-06-22T07:28:04;26.60;65.70
16521;DHT22;8373;48.110;11.522;2023-06-22T07:30:40;26.60;65.70
16521;DHT22;8373;48.110;11.522;2023-06-22T07:33:18;26.70;65.30
16521;DHT22;8373;48.110;11.522;2023-06-22T07:35:53;26.80;64.80
16521;DHT22;8373;48.110;11.522;2023-06-22T07:38:39;26.80;64.90
16521;DHT22;8373;48.110;11.522;2023-06-22T07:41:25;27.00;64.80
16521;DHT22;8373;48.110;11.522;2023-06-22T07:44:05;27.10;64.40
16521;DHT22;8373;48.110;11.522;2023-06-22T07:46:39;27.30;63.50
16521;DHT22;8373;48.110;11.522;2023-06-22T07:49:10;27.40;62.50
16521;DHT22;8373;48.110;11.522;2023-06-22T07:51:49;27.50;62.20
16521;DHT22;8373;48.110;11.522;2023-06-22T07:54:29;27.70;61.30
16521;DHT22;8373;48.110;11.522;2023-06-22T07:57:24;27.60;61.00
16521;DHT22;8373;48.110;11.522;2023-06-22T08:00:06;27.70;61.00
16521;DHT22;8373;48.110;11.522;2023-06-22T08:02:44;27.80;60.60
16521;DHT22;8373;48.110;11.522;2023-06-22T08:05:20;27.70;60.80
16521;DHT22;8373;48.110;11.522;2023-06-22T08:08:01;27.90;60.00
16521;DHT22;8373;48.110;11.522;2023-06-22T08:10:42;27.90;59.10
16521;DHT22;8373;48.110;11.522;2023-06-22T08:13:23;27.90;59.50
16521;DHT22;8373;48.110;11.522;2023-06-22T08:16:02;28.00;59.40
16521;DHT22;8373;48.110;11.522;2023-06-22T08:18:36;28.00;59.60
16521;DHT22;8373;48.110;11.522;2023-06-22T08:21:06;28.30;59.20
16521;DHT22;8373;48.110;11.522;2023-06-22T08:23:43;28.40;58.60
16521;DHT22;8373;48.110;11.522;2023-06-22T08:26:14;28.50;58.10
16521;DHT22;8373;48.110;11.522;2023-06-22T08:28:48;28.70;58.10
16521;DHT22;8373;48.110;11.522;2023-06-22T08:31:19;28.40;58.50
16521;DHT22;8373;48.110;11.522;2023-06-22T08:33:48;28.50;58.80
16521;DHT22;8373;48.110;11.522;2023-06-22T08:36:17;28.60;58.80
16521;DHT22;8373;48.110;11.522;2023-06-22T08:38:46;28.60;59.00
16521;DHT22;8373;48.110;11.522;2023-06-22T08:41:17;28.60;59.30
16521;DHT22;8373;48.110;11.522;2023-06-22T08:43:49;28.60;58.90
16521;DHT22;8373;48.110;11.522;2023-06-22T08:46:28;28.50;59.00
16521;DHT22;8373;48.110;11.522;2023-06-22T08:52:08;28.60;59.20
16521;DHT22;8373;48.110;11.522;2023-06-22T08:54:52;28.70;59.20
16521;DHT22;8373;48.110;11.522;2023-06-22T08:57:29;28.80;59.20
16521;DHT22;8373;48.110;11.522;2023-06-22T09:00:12;28.80;59.10
16521;DHT22;8373;48.110;11.522;2023-06-22T09:02:43;29.00;58.60
16521;DHT22;8373;48.110;11.522;2023-06-22T09:05:12;29.10;57.70
16521;DHT22;8373;48.110;11.522;2023-06-22T09:07:44;29.20;57.40
16521;DHT22;8373;48.110;11.522;2023-06-22T09:10:15;29.30;57.00
16521;DHT22;8373;48.110;11.522;2023-06-22T09:12:43;29.30;57.10
16521;DHT22;8373;48.110;11.522;2023-06-22T09:15:20;29.40;56.50
16521;DHT22;8373;48.110;11.522;2023-06-22T09:17:54;29.40;56.40
16521;DHT22;8373;48.110;11.522;2023-06-22T09:20:25;29.50;56.40
16521;DHT22;8373;48.110;11.522;2023-06-22T09:22:54;29.60;55.80
16521;DHT22;8373;48.110;11.522;2023-06-22T09:25:31;29.40;56.10
16521;DHT22;8373;48.110;11.522;2023-06-22T09:28:07;29.50;55.90
16521;DHT22;8373;48.110;11.522;2023-06-22T09:30:39;29.60;55.40
16521;DHT22;8373;48.110;11.522;2023-06-22T09:33:08;29.70;55.70
16521;DHT22;8373;48.110;11.522;2023-06-22T09:35:36;29.70;54.90
16521;DHT22;8373;48.110;11.522;2023-06-22T09:38:04;29.80;55.10
16521;DHT22;8373;48.110;11.522;2023-06-22T09:40:35;29.80;55.10
16521;DHT22;8373;48.110;11.522;2023-06-22T09:43:07;29.80;55.00
16521;DHT22;8373;48.110;11.522;2023-06-22T09:45:38;29.90;55.20
16521;DHT22;8373;48.110;11.522;2023-06-22T09:48:09;29.80;55.00
16521;DHT22;8373;48.110;11.522;2023-06-22T09:50:38;29.80;55.20
16521;DHT22;8373;48.110;11.522;2023-06-22T09:53:07;29.90;55.10
16521;DHT22;8373;48.110;11.522;2023-06-22T09:55:38;29.90;54.90
16521;DHT22;8373;48.110;11.522;2023-06-22T09:58:06;30.10;54.60
16521;DHT22;8373;48.110;11.522;2023-06-22T10:00:36;30.00;54.70
16521;DHT22;8373;48.110;11.522;2023-06-22T10:03:05;30.10;54.20
16521;DHT22;8373;48.110;11.522;2023-06-22T10:05:33;30.00;54.40
16521;DHT22;8373;48.110;11.522;2023-06-22T10:08:01;29.90;54.50
16521;DHT22;8373;48.110;11.522;2023-06-22T10:10:29;29.80;55.00
16521;DHT22;8373;48.110;11.522;2023-06-22T10:13:02;29.90;54.70
16521;DHT22;8373;48.110;11.522;2023-06-22T10:15:30;30.10;54.40
16521;DHT22;8373;48.110;11.522;2023-06-22T10:17:59;30.20;54.20
16521;DHT22;8373;48.110;11.522;2023-06-22T10:20:31;30.10;54.60
16521;DHT22;8373;48.110;11.522;2023-06-22T10:22:59;30.10;54.30
16521;DHT22;8373;48.110;11.522;2023-06-22T10:25:28;30.10;54.40
16521;DHT22;8373;48.110;11.522;2023-06-22T10:27:57;30.10;54.40
16521;DHT22;8373;48.110;11.522;2023-06-22T10:30:32;30.00;54.40
16521;DHT22;8373;48.110;11.522;2023-06-22T10:33:01;29.80;54.50
16521;DHT22;8373;48.110;11.522;2023-06-22T10:35:35;29.70;54.70
16521;DHT22;8373;48.110;11.522;2023-06-22T10:38:06;30.10;54.90
16521;DHT22;8373;48.110;11.522;2023-06-22T10:40:37;30.00;54.30
16521;DHT22;8373;48.110;11.522;2023-06-22T10:43:07;30.10;54.20
16521;DHT22;8373;48.110;11.522;2023-06-22T10:45:37;30.10;54.10
16521;DHT22;8373;48.110;11.522;2023-06-22T10:48:07;30.30;54.30
16521;DHT22;8373;48.110;11.522;2023-06-22T10:50:38;30.50;53.70
16521;DHT22;8373;48.110;11.522;2023-06-22T10:53:08;30.60;53.50
16521;DHT22;8373;48.110;11.522;2023-06-22T10:55:36;30.80;53.20
16521;DHT22;8373;48.110;11.522;2023-06-22T10:58:06;30.80;52.80
16521;DHT22;8373;48.110;11.522;2023-06-22T11:00:33;30.90;53.00
16521;DHT22;8373;48.110;11.522;2023-06-22T11:03:07;30.90;52.90
16521;DHT22;8373;48.110;11.522;2023-06-22T11:05:43;30.50;53.10
16521;DHT22;8373;48.110;11.522;2023-06-22T11:08:27;30.50;53.30
16521;DHT22;8373;48.110;11.522;2023-06-22T11:10:58;30.40;53.60
16521;DHT22;8373;48.110;11.522;2023-06-22T11:13:29;30.20;53.40
16521;DHT22;8373;48.110;11.522;2023-06-22T11:16:00;30.20;53.50
16521;DHT22;8373;48.110;11.522;2023-06-22T11:18:33;30.10;53.60
16521;DHT22;8373;48.110;11.522;2023-06-22T11:21:13;30.20;54.10
16521;DHT22;8373;48.110;11.522;2023-06-22T11:23:46;30.30;53.20
16521;DHT22;8373;48.110;11.522;2023-06-22T11:29:02;30.90;52.40
16521;DHT22;8373;48.110;11.522;2023-06-22T11:31:34;31.00;52.10
16521;DHT22;8373;48.110;11.522;2023-06-22T11:34:09;31.20;51.90
16521;DHT22;8373;48.110;11.522;2023-06-22T11:36:40;31.30;51.70
16521;DHT22;8373;48.110;11.522;2023-06-22T11:39:09;31.40;51.70
16521;DHT22;8373;48.110;11.522;2023-06-22T11:41:46;31.50;51.10
16521;DHT22;8373;48.110;11.522;2023-06-22T11:44:25;31.60;50.90
16521;DHT22;8373;48.110;11.522;2023-06-22T11:46:55;31.60;50.70
16521;DHT22;8373;48.110;11.522;2023-06-22T11:49:27;31.60;50.50
16521;DHT22;8373;48.110;11.522;2023-06-22T11:52:01;31.70;50.20
16521;DHT22;8373;48.110;11.522;2023-06-22T11:54:38;31.80;50.50
16521;DHT22;8373;48.110;11.522;2023-06-22T11:57:14;31.90;50.70
16521;DHT22;8373;48.110;11.522;2023-06-22T11:59:48;32.00;50.80
16521;DHT22;8373;48.110;11.522;2023-06-22T12:02:22;32.10;50.70
16521;DHT22;8373;48.110;11.522;2023-06-22T12:04:56;32.20;50.70
16521;DHT22;8373;48.110;11.522;2023-06-22T12:07:36;32.20;50.60
16521;DHT22;8373;48.110;11.522;2023-06-22T12:10:17;32.10;50.60
16521;DHT22;8373;48.110;11.522;2023-06-22T12:12:50;32.00;51.50
16521;DHT22;8373;48.110;11.522;2023-06-22T12:15:23;32.10;51.50
16521;DHT22;8373;48.110;11.522;2023-06-22T12:18:02;32.10;51.40
16521;DHT22;8373;48.110;11.522;2023-06-22T12:20:36;32.20;51.70
16521;DHT22;8373;48.110;11.522;2023-06-22T12:23:05;32.40;51.20
16521;DHT22;8373;48.110;11.522;2023-06-22T12:25:33;32.60;50.90
16521;DHT22;8373;48.110;11.522;2023-06-22T12:28:03;32.60;50.60
16521;DHT22;8373;48.110;11.522;2023-06-22T12:30:35;32.70;50.20
16521;DHT22;8373;48.110;11.522;2023-06-22T12:33:08;32.80;49.30
16521;DHT22;8373;48.110;11.522;2023-06-22T12:35:38;32.80;49.60
16521;DHT22;8373;48.110;11.522;2023-06-22T12:38:09;32.60;49.90
16521;DHT22;8373;48.110;11.522;2023-06-22T12:40:38;32.60;50.10
16521;DHT22;8373;48.110;11.522;2023-06-22T12:43:09;32.40;50.40
16521;DHT22;8373;48.110;11.522;2023-06-22T12:45:39;32.30;50.50
16521;DHT22;8373;48.110;11.522;2023-06-22T12:48:25;32.00;51.50
16521;DHT22;8373;48.110;11.522;2023-06-22T12:51:04;32.10;51.70
16521;DHT22;8373;48.110;11.522;2023-06-22T12:53:58;32.30;51.90
16521;DHT22;8373;48.110;11.522;2023-06-22T12:56:41;32.40;51.60
16521;DHT22;8373;48.110;11.522;2023-06-22T12:59:24;32.30;51.70
16521;DHT22;8373;48.110;11.522;2023-06-22T13:02:07;32.30;51.80
16521;DHT22;8373;48.110;11.522;2023-06-22T13:04:44;32.40;51.60
16521;DHT22;8373;48.110;11.522;2023-06-22T13:07:20;32.50;51.50
16521;DHT22;8373;48.110;11.522;2023-06-22T13:10:04;32.40;51.70
16521;DHT22;8373;48.110;11.522;2023-06-22T13:12:38;32.60;51.50
16521;DHT22;8373;48.110;11.522;2023-06-22T13:15:16;32.80;50.90
16521;DHT22;8373;48.110;11.522;2023-06-22T13:17:51;32.80;50.90
16521;DHT22;8373;48.110;11.522;2023-06-22T13:20:38;32.80;50.60
16521;DHT22;8373;48.110;11.522;2023-06-22T13:23:13;33.00;50.40
16521;DHT22;8373;48.110;11.522;2023-06-22T13:25:45;33.20;50.40
16521;DHT22;8373;48.110;11.522;2023-06-22T13:28:17;33.40;50.10
16521;DHT22;8373;48.110;11.522;2023-06-22T13:30:52;33.50;49.40
16521;DHT22;8373;48.110;11.522;2023-06-22T13:33:29;33.60;49.20
16521;DHT22;8373;48.110;11.522;2023-06-22T13:36:26;33.80;49.20
16521;DHT22;8373;48.110;11.522;2023-06-22T13:39:08;33.80;48.90
16521;DHT22;8373;48.110;11.522;2023-06-22T13:44:55;33.80;48.80
16521;DHT22;8373;48.110;11.522;2023-06-22T13:47:25;33.90;48.50
16521;DHT22;8373;48.110;11.522;2023-06-22T13:50:38;33.90;49.00
16521;DHT22;8373;48.110;11.522;2023-06-22T13:56:23;33.90;48.20
16521;DHT22;8373;48.110;11.522;2023-06-22T13:58:56;33.90;48.50
16521;DHT22;8373;48.110;11.522;2023-06-22T14:01:29;34.00;48.40
16521;DHT22;8373;48.110;11.522;2023-06-22T14:03:59;34.10;48.30
16521;DHT22;8373;48.110;11.522;2023-06-22T14:06:31;34.10;48.20
16521;DHT22;8373;48.110;11.522;2023-06-22T14:09:01;34.20;48.30
16521;DHT22;8373;48.110;11.522;2023-06-22T14:11:43;34.20;47.80
16521;DHT22;8373;48.110;11.522;2023-06-22T14:14:27;34.30;47.30
16521;DHT22;8373;48.110;11.522;2023-06-22T14:17:06;34.30;47.70
16521;DHT22;8373;48.110;11.522;2023-06-22T14:19:36;34.20;47.40
16521;DHT22;8373;48.110;11.522;2023-06-22T14:22:08;34.20;48.40
16521;DHT22;8373;48.110;11.522;2023-06-22T14:24:38;34.20;47.40
16521;DHT22;8373;48.110;11.522;2023-06-22T14:27:08;34.20;47.20
16521;DHT22;8373;48.110;11.522;2023-06-22T14:29:40;34.30;47.30
16521;DHT22;8373;48.110;11.522;2023-06-22T14:32:12;34.30;46.90
16521;DHT22;8373;48.110;11.522;2023-06-22T14:34:45;34.20;46.70
16521;DHT22;8373;48.110;11.522;2023-06-22T14:37:21;34.10;47.00
16521;DHT22;8373;48.110;11.522;2023-06-22T14:40:03;34.20;46.80
16521;DHT22;8373;48.110;11.522;2023-06-22T14:42:39;34.10;47.30
16521;DHT22;8373;48.110;11.522;2023-06-22T14:45:13;34.00;46.10
16521;DHT22;8373;48.110;11.522;2023-06-22T14:47:48;34.10;46.10
16521;DHT22;8373;48.110;11.522;2023-06-22T14:50:18;34.10;45.50
16521;DHT22;8373;48.110;11.522;2023-06-22T14:52:49;34.20;45.60
16521;DHT22;8373;48.110;11.522;2023-06-22T14:55:22;34.20;45.90
16521;DHT22;8373;48.110;11.522;2023-06-22T14:58:00;34.10;46.40
16521;DHT22;8373;48.110;11.522;2023-06-22T15:00:36;34.20;45.90
16521;DHT22;8373;48.110;11.522;2023-06-22T15:03:22;34.20;45.80
16521;DHT22;8373;48.110;11.522;2023-06-22T15:05:57;34.00;46.00
16521;DHT22;8373;48.110;11.522;2023-06-22T15:08:28;33.90;47.10
16521;DHT22;8373;48.110;11.522;2023-06-22T15:10:58;33.80;46.90
16521;DHT22;8373;48.110;11.522;2023-06-22T15:13:28;33.60;49.50
16521;DHT22;8373;48.110;11.522;2023-06-22T15:15:59;33.40;48.40
16521;DHT22;8373;48.110;11.522;2023-06-22T15:21:56;33.10;48.70
16521;DHT22;8373;48.110;11.522;2023-06-22T15:24:37;33.10;48.50
16521;DHT22;8373;48.110;11.522;2023-06-22T15:27:12;32.90;49.10
16521;DHT22;8373;48.110;11.522;2023-06-22T15:29:54;32.70;49.20
16521;DHT22;8373;48.110;11.522;2023-06-22T15:32:26;32.70;48.90
16521;DHT22;8373;48.110;11.522;2023-06-22T15:35:03;32.70;48.90
16521;DHT22;8373;48.110;11.522;2023-06-22T15:37:39;32.80;47.70
16521;DHT22;8373;48.110;11.522;2023-06-22T15:40:23;32.90;48.00
16521;DHT22;8373;48.110;11.522;2023-06-22T15:43:12;32.90;48.20
16521;DHT22;8373;48.110;11.522;2023-06-22T15:45:55;32.90;47.40
16521;DHT22;8373;48.110;11.522;2023-06-22T15:48:35;32.90;47.10
16521;DHT22;8373;48.110;11.522;2023-06-22T15:51:21;32.90;47.40
16521;DHT22;8373;48.110;11.522;2023-06-22T15:54:16;32.80;48.40
16521;DHT22;8373;48.110;11.522;2023-06-22T15:56:59;32.70;47.20
16521;DHT22;8373;48.110;11.522;2023-06-22T15:59:42;32.60;47.50
16521;DHT22;8373;48.110;11.522;2023-06-22T16:02:18;32.60;47.70
16521;DHT22;8373;48.110;11.522;2023-06-22T16:04:59;32.60;47.30
16521;DHT22;8373;48.110;11.522;2023-06-22T16:07:43;32.60;47.30
16521;DHT22;8373;48.110;11.522;2023-06-22T16:10:26;32.50;47.80
16521;DHT22;8373;48.110;11.522;2023-06-22T16:13:00;32.50;48.00
16521;DHT22;8373;48.110;11.522;2023-06-22T16:15:40;32.50;48.00
16521;DHT22;8373;48.110;11.522;2023-06-22T16:18:13;32.40;48.20
16521;DHT22;8373;48.110;11.522;2023-06-22T16:20:49;32.40;49.10
16521;DHT22;8373;48.110;11.522;2023-06-22T16:23:22;32.30;48.90